Time;durP1;ratioP1;P1;durP2;ratioP2;P2;SDS_P1;SDS_P2;PMS_P1;PMS_P2;Temp;Humidity;BMP_temperature;BMP_pressure;BME280_temperature;BME280_humidity;BME280_pressure;Samples;Min_cycle;Max_cycle;Signal;HPM_P1;HPM_P2
2022/03/12 00:00:38;;;;;;;18.95;10.55;;;;;;;28.82;52.27;100730.00;5069220;28;70213;-40
2022/03/12 00:03:10;;;;;;;27.45;14.50;;;;;;;28.80;58.35;100723.13;5070311;27;65697;-40
2022/03/12 00:06:05;;;;;;;47.58;19.85;;;;;;;28.49;63.09;100674.16;5071858;27;69946;-41
2022/03/12 00:08:44;;;;;;;45.50;20.63;;;;;;;28.88;63.07;100736.41;5067958;27;65759;-41
2022/03/12 00:11:18;;;;;;;44.65;19.80;;;;;;;28.50;64.26;100681.25;5078835;27;69702;-40
2022/03/12 00:13:51;;;;;;;50.70;18.23;;;;;;;28.62;59.54;100688.72;5066147;28;66360;-42
2022/03/12 00:16:23;;;;;;;39.05;16.48;;;;;;;29.10;59.21;100745.97;5071491;28;70319;-41
2022/03/12 00:18:55;;;;;;;;;;;;;;;28.84;62.95;100757.63;5071532;28;66226;-42
2022/03/12 00:21:36;;;;;;;34.88;15.27;;;;;;;29.13;59.20;100748.22;5070993;28;70367;-41
2022/03/12 00:24:08;;;;;;;29.02;15.23;;;;;;;29.32;59.09;100764.59;5069414;27;65387;-42
2022/03/12 00:26:41;;;;;;;30.35;15.10;;;;;;;29.10;59.83;100731.63;5065344;28;69965;-50
2022/03/12 00:29:16;;;;;;;35.03;15.80;;;;;;;29.41;59.50;100779.53;5073625;28;66161;-41
2022/03/12 00:31:49;;;;;;;36.58;15.98;;;;;;;29.48;60.63;100776.81;5065164;28;69254;-42
2022/03/12 00:34:20;;;;;;;27.10;15.02;;;;;;;29.51;60.30;100785.34;5063393;28;66368;-41
2022/03/12 00:36:51;;;;;;;44.00;18.50;;;;;;;29.53;60.11;100782.41;5065524;28;70431;-43
2022/03/12 00:39:22;;;;;;;32.47;15.70;;;;;;;29.60;60.86;100794.03;5073470;28;66118;-41
2022/03/12 00:41:53;;;;;;;27.65;13.85;;;;;;;29.60;60.80;100789.44;5059828;28;70143;-45
2022/03/12 00:44:33;;;;;;;26.88;15.30;;;;;;;29.66;60.79;100801.31;5067421;28;65992;-42
2022/03/12 00:47:17;;;;;;;29.15;16.10;;;;;;;29.63;60.99;100790.91;5071221;28;70130;-44
2022/03/12 00:49:50;;;;;;;31.63;14.75;;;;;;;29.51;61.45;100773.69;5070064;28;66043;-43
2022/03/12 00:52:22;;;;;;;30.83;16.92;;;;;;;29.72;60.85;100813.97;5046704;28;68414;-42
2022/03/12 00:54:55;;;;;;;35.08;18.48;;;;;;;29.73;60.78;100809.41;5075952;28;65905;-42
2022/03/12 00:57:28;;;;;;;43.20;19.73;;;;;;;29.76;61.30;100814.38;5071140;28;68947;-42
2022/03/12 01:00:04;;;;;;;35.50;20.00;;;;;;;29.79;61.21;100820.19;5072162;28;66655;-42
2022/03/12 01:02:35;;;;;;;40.65;22.52;;;;;;;29.78;61.05;100813.13;5055155;28;70391;-42
2022/03/12 01:05:10;;;;;;;36.10;21.27;;;;;;;29.87;62.41;100832.63;5068510;28;65516;-42
2022/03/12 01:07:46;;;;;;;43.55;21.25;;;;;;;29.84;62.17;100824.97;5040770;28;69280;-42
2022/03/12 01:10:17;;;;;;;45.25;20.33;;;;;;;29.87;61.92;100832.63;5069132;28;65275;-42
2022/03/12 01:12:48;;;;;;;49.13;20.48;;;;;;;29.93;61.05;100833.66;5070765;28;70277;-42
2022/03/12 01:15:19;;;;;;;33.45;19.42;;;;;;;29.90;61.14;100825.97;5075288;27;66186;-43
2022/03/12 01:17:51;;;;;;;45.42;21.60;;;;;;;29.97;61.84;100840.28;5068343;28;68745;-42
2022/03/12 01:20:25;;;;;;;33.55;18.85;;;;;;;30.02;60.93;100845.88;5068740;28;66455;-41
2022/03/12 01:22:56;;;;;;;39.20;20.75;;;;;;;30.06;60.95;100841.69;5068998;28;70250;-41
2022/03/12 01:25:27;;;;;;;42.90;21.05;;;;;;;30.10;61.33;100853.75;5073132;27;66129;-41
2022/03/12 01:27:58;;;;;;;46.45;22.88;;;;;;;30.03;61.78;100852.94;5068486;27;69873;-42
2022/03/12 01:30:31;;;;;;;44.33;25.05;;;;;;;30.11;61.88;100860.81;5077384;28;65033;-42
2022/03/12 01:33:03;;;;;;;47.35;25.05;;;;;;;30.13;61.12;100864.13;5068985;27;69624;-42
2022/03/12 01:35:34;;;;;;;53.88;26.08;;;;;;;30.08;62.43;100855.00;5072373;27;66170;-41
2022/03/12 01:38:06;;;;;;;51.10;25.05;;;;;;;30.15;61.88;100851.22;5071299;27;71423;-41
2022/03/12 01:40:37;;;;;;;54.85;25.98;;;;;;;30.03;63.44;100850.22;5070881;27;65763;-40
2022/03/12 01:43:08;;;;;;;54.03;26.42;;;;;;;30.21;61.10;100849.53;5066097;27;70424;-42
2022/03/12 01:45:40;;;;;;;40.70;24.80;;;;;;;30.20;61.87;100846.00;5060867;27;64904;-41
2022/03/12 01:48:12;;;;;;;53.33;28.13;;;;;;;30.19;62.82;100841.63;5068910;27;69198;-42
2022/03/12 01:50:44;;;;;;;61.53;28.00;;;;;;;30.16;61.81;100820.41;5074540;27;65423;-41
2022/03/12 01:53:18;;;;;;;50.03;25.45;;;;;;;30.29;61.72;100830.38;5073924;27;43499;-41
2022/03/12 01:55:49;;;;;;;42.05;24.17;;;;;;;30.30;61.62;100831.19;5063466;27;66584;-41
2022/03/12 01:58:21;;;;;;;54.50;26.23;;;;;;;30.34;61.31;100849.50;5074032;27;69910;-41
2022/03/12 02:00:53;;;;;;;47.37;23.67;;;;;;;30.36;62.36;100870.91;5064835;27;66657;-41
2022/03/12 02:03:28;;;;;;;42.63;22.23;;;;;;;30.35;61.08;100853.84;5067184;27;69061;-41
2022/03/12 02:05:59;;;;;;;52.55;22.25;;;;;;;30.35;62.80;100870.09;5067673;27;65970;-40
2022/03/12 02:08:30;;;;;;;41.38;20.40;;;;;;;30.43;61.09;100869.84;5075841;28;70075;-39
2022/03/12 02:11:01;;;;;;;42.75;21.83;;;;;;;30.40;61.08;100869.44;5068956;28;66277;-40
2022/03/12 02:13:34;;;;;;;45.10;19.90;;;;;;;30.03;61.49;100804.25;5071107;28;69674;-40
2022/03/12 02:16:10;;;;;;;35.45;19.38;;;;;;;30.54;61.30;100886.44;5069521;28;65770;-40
2022/03/12 02:18:48;;;;;;;31.45;18.30;;;;;;;30.49;61.52;100873.53;5070434;28;70361;-42
2022/03/12 02:21:49;;;;;;;27.30;16.48;;;;;;;30.24;61.22;100836.41;5070175;28;66578;-41
2022/03/12 02:24:22;;;;;;;32.40;17.52;;;;;;;30.51;60.64;100852.50;5052215;28;69085;-45
2022/03/12 02:26:55;;;;;;;29.52;16.85;;;;;;;30.44;60.69;100839.00;5074057;27;66118;-42
2022/03/12 02:29:27;;;;;;;28.58;17.15;;;;;;;30.75;60.79;100887.94;5072506;28;69988;-43
2022/03/12 02:32:01;;;;;;;24.27;16.20;;;;;;;30.80;60.70;100874.63;5071112;27;66703;-41
2022/03/12 02:34:48;;;;;;;31.85;16.75;;;;;;;30.82;61.06;100877.94;5074599;27;70213;-41
2022/03/12 02:37:34;;;;;;;25.35;15.45;;;;;;;30.87;60.71;100873.53;5069014;28;66632;-41
2022/03/12 02:40:10;;;;;;;30.70;16.63;;;;;;;30.85;60.92;100872.06;5076732;28;70621;-41
2022/03/12 02:42:41;;;;;;;24.33;16.67;;;;;;;30.93;60.80;100866.38;5065546;28;66182;-40
2022/03/12 02:45:12;;;;;;;30.70;15.45;;;;;;;30.92;59.89;100862.84;5081518;27;71160;-41
2022/03/12 02:47:43;;;;;;;22.83;15.02;;;;;;;30.74;60.13;100819.44;5074153;28;65494;-42
2022/03/12 02:50:15;;;;;;;23.80;15.77;;;;;;;31.04;59.81;100862.97;5073521;28;70121;-41
2022/03/12 02:52:46;;;;;;;22.85;14.65;;;;;;;31.06;60.05;100858.13;5070101;27;65661;-41
2022/03/12 02:55:21;;;;;;;24.05;15.25;;;;;;;30.72;59.46;100792.56;5051900;28;68443;-41
2022/03/12 02:57:52;;;;;;;22.38;15.00;;;;;;;31.12;59.86;100843.72;5076977;28;66326;-41
2022/03/12 03:00:23;;;;;;;19.63;14.15;;;;;;;31.05;59.67;100834.81;5074868;28;70418;-41
2022/03/12 03:02:54;;;;;;;23.45;14.93;;;;;;;31.19;59.24;100840.94;5070635;28;65850;-40
2022/03/12 03:05:36;;;;;;;25.27;16.10;;;;;;;31.22;59.84;100839.66;5068175;28;69189;-40
2022/03/12 03:08:10;;;;;;;30.77;16.38;;;;;;;30.94;59.76;100781.34;5066408;28;66188;-40
2022/03/12 03:10:43;;;;;;;24.50;14.45;;;;;;;31.29;59.05;100826.88;5072707;28;70540;-40
2022/03/12 03:13:17;;;;;;;20.38;15.43;;;;;;;31.32;59.34;100826.44;5078147;28;66534;-42
2022/03/12 03:15:49;;;;;;;25.90;15.40;;;;;;;31.33;59.03;100830.78;5068948;28;69517;-41
2022/03/12 03:18:24;;;;;;;23.20;15.20;;;;;;;31.31;59.44;100820.16;5068723;28;66107;-42
2022/03/12 03:20:55;;;;;;;37.13;20.42;;;;;;;31.32;58.73;100824.53;5070306;28;70107;-39
2022/03/12 03:23:29;;;;;;;40.28;19.85;;;;;;;31.31;58.84;100833.69;5071776;28;65819;-39
2022/03/12 03:26:01;;;;;;;28.67;17.88;;;;;;;31.32;58.22;100818.28;5066769;28;69890;-40
2022/03/12 03:28:34;;;;;;;37.60;20.80;;;;;;;31.36;58.10;100825.75;5072646;27;65596;-42
2022/03/12 03:31:08;;;;;;;36.25;18.75;;;;;;;31.38;59.00;100828.25;5067393;28;68958;-40
2022/03/12 03:33:38;;;;;;;39.20;20.55;;;;;;;31.38;58.12;100818.25;5079993;28;65489;-40
2022/03/12 03:36:09;;;;;;;34.67;20.90;;;;;;;31.38;57.82;100822.84;5063096;27;68713;-40
2022/03/12 03:38:41;;;;;;;29.60;19.48;;;;;;;31.33;58.00;100798.25;5066720;28;66417;-40
2022/03/12 03:41:11;;;;;;;30.25;19.73;;;;;;;31.49;58.20;100813.13;5066751;28;69863;-40
2022/03/12 03:43:47;;;;;;;31.05;18.77;;;;;;;31.47;57.76;100815.22;5075981;28;67388;-40
2022/03/12 03:46:23;;;;;;;33.50;19.48;;;;;;;31.22;57.13;100767.31;5076162;27;69988;-41
2022/03/12 03:48:55;;;;;;;37.90;19.77;;;;;;;31.47;57.36;100804.38;5072917;28;66107;-41
2022/03/12 03:51:26;;;;;;;51.33;22.33;;;;;;;31.54;57.19;100797.03;5069176;28;69919;-42
2022/03/12 03:53:57;;;;;;;34.78;20.48;;;;;;;31.62;57.05;100799.41;5075345;27;66267;-41
2022/03/12 03:56:30;;;;;;;36.47;19.33;;;;;;;31.66;56.96;100803.31;5068436;28;70489;-41
2022/03/12 03:59:21;;;;;;;38.00;20.40;;;;;;;31.66;57.40;100786.22;5074973;28;68147;-41
2022/03/12 04:01:52;;;;;;;39.90;20.98;;;;;;;31.65;57.05;100771.84;5070632;28;70427;-40
2022/03/12 04:04:23;;;;;;;37.05;20.77;;;;;;;31.76;56.98;100787.34;5080085;28;65775;-40
2022/03/12 04:06:54;;;;;;;34.83;22.25;;;;;;;31.80;56.84;100793.13;5058928;28;70015;-40
2022/03/12 04:09:25;;;;;;;31.13;21.25;;;;;;;31.80;56.58;100779.56;5076921;28;66271;-40
2022/03/12 04:11:55;;;;;;;48.07;23.33;;;;;;;31.76;56.54;100771.06;5076092;27;70024;-40
2022/03/12 04:14:29;;;;;;;32.17;20.88;;;;;;;31.91;56.20;100770.69;5068104;28;66274;-40
2022/03/12 04:17:00;;;;;;;33.38;20.45;;;;;;;31.95;55.93;100769.16;5076131;28;70086;-40
2022/03/12 04:19:34;;;;;;;38.45;22.25;;;;;;;32.00;55.82;100758.44;5079345;28;66232;-40
2022/03/12 04:22:06;;;;;;;24.13;19.27;;;;;;;32.05;55.82;100764.00;5074016;27;70174;-40
2022/03/12 04:24:37;;;;;;;41.67;23.58;;;;;;;32.11;55.94;100756.00;5072375;27;65616;-40
2022/03/12 04:27:08;;;;;;;33.30;20.27;;;;;;;32.13;55.96;100753.91;5066604;27;69253;-40
2022/03/12 04:29:39;;;;;;;36.60;20.30;;;;;;;32.15;55.92;100744.47;5065413;28;65606;-41
2022/03/12 04:32:11;;;;;;;42.88;24.27;;;;;;;32.16;55.88;100742.56;5065710;28;68960;-40
2022/03/12 04:34:42;;;;;;;43.78;25.00;;;;;;;32.23;56.09;100749.56;5073454;27;66581;-41
2022/03/12 04:37:14;;;;;;;43.80;26.05;;;;;;;32.06;55.60;100707.84;5066665;28;70339;-41
2022/03/12 04:39:48;;;;;;;46.50;24.70;;;;;;;32.24;55.68;100725.97;5067805;28;65856;-40
2022/03/12 04:42:21;;;;;;;38.08;24.08;;;;;;;32.30;55.31;100722.31;5067940;28;70511;-41
2022/03/12 04:44:54;;;;;;;43.60;24.90;;;;;;;32.35;55.31;100722.44;5074323;28;65839;-42
2022/03/12 04:47:26;;;;;;;35.00;22.40;;;;;;;32.35;55.44;100708.88;5071250;27;70354;-42
2022/03/12 04:49:57;;;;;;;43.55;26.58;;;;;;;32.40;55.33;100698.13;5070611;28;66698;-42
2022/03/12 04:52:29;;;;;;;44.50;25.93;;;;;;;32.40;55.60;100706.28;5071928;28;69184;-43
2022/03/12 04:55:11;;;;;;;48.38;25.55;;;;;;;32.03;55.17;100646.75;5070538;28;66106;-42
2022/03/12 04:57:43;;;;;;;46.40;24.83;;;;;;;32.17;55.50;100654.66;5055335;28;70154;-51
2022/03/12 05:00:26;;;;;;;36.83;22.92;;;;;;;32.37;55.33;100678.75;5067334;28;66039;-42
2022/03/12 05:03:01;;;;;;;33.92;23.05;;;;;;;32.43;55.47;100684.09;5034674;28;70252;-42
2022/03/12 05:05:32;;;;;;;43.67;25.52;;;;;;;32.41;55.52;100669.09;5069173;27;66011;-42
2022/03/12 05:08:02;;;;;;;44.85;25.60;;;;;;;32.41;54.95;100672.63;5065697;28;68855;-42
2022/03/12 05:10:34;;;;;;;38.95;24.10;;;;;;;32.45;55.39;100671.06;5070513;28;66349;-42
2022/03/12 05:13:05;;;;;;;42.05;25.27;;;;;;;32.46;55.55;100656.50;5069720;28;68929;-43
2022/03/12 05:15:39;;;;;;;40.73;26.20;;;;;;;32.19;56.86;100652.56;5067413;27;66325;-40
2022/03/12 05:18:12;;;;;;;46.72;26.25;;;;;;;32.04;57.66;100648.41;5064827;27;70185;-41
2022/03/12 05:20:44;;;;;;;35.55;24.20;;;;;;;31.80;55.46;100641.25;5066423;28;65038;-41
2022/03/12 05:23:16;;;;;;;35.53;24.45;;;;;;;31.42;54.63;100618.03;5067523;28;70113;-39
2022/03/12 05:25:50;;;;;;;42.88;24.05;;;;;;;31.28;53.47;100624.66;5071588;27;65525;-42
2022/03/12 05:28:25;;;;;;;33.05;21.90;;;;;;;30.87;51.72;100574.75;5069707;27;69706;-41
2022/03/12 05:31:16;;;;;;;33.65;22.67;;;;;;;30.96;50.21;100624.88;5075523;28;64567;-42
2022/03/12 05:33:51;;;;;;;30.30;21.83;;;;;;;30.90;49.48;100614.94;5063439;28;70505;-41
2022/03/12 05:36:21;;;;;;;24.98;20.63;;;;;;;30.67;49.15;100597.47;5073465;28;67079;-42
2022/03/12 05:38:53;;;;;;;25.95;20.65;;;;;;;30.68;48.14;100614.53;5070170;27;70595;-41
2022/03/12 05:41:24;;;;;;;27.55;20.80;;;;;;;30.60;47.76;100612.94;5070907;28;67263;-42
2022/03/12 05:43:55;;;;;;;25.65;20.17;;;;;;;30.56;46.71;100619.03;5069780;27;69338;-42
2022/03/12 05:46:26;;;;;;;27.92;19.17;;;;;;;30.47;46.03;100616.63;5071050;28;66321;-42
2022/03/12 05:48:57;;;;;;;21.35;18.17;;;;;;;30.41;45.76;100606.69;5066796;28;70907;-41
2022/03/12 05:51:29;;;;;;;29.02;18.70;;;;;;;30.32;44.86;100599.09;5077874;28;66026;-41
2022/03/12 05:54:01;;;;;;;19.63;17.65;;;;;;;30.50;44.88;100593.69;5064963;28;69412;-42
2022/03/12 05:56:32;;;;;;;18.55;16.15;;;;;;;30.59;44.36;100595.06;5071723;28;65766;-42
2022/03/12 05:59:03;;;;;;;25.38;17.60;;;;;;;30.68;44.11;100596.41;5074021;28;68793;-44
2022/03/12 06:01:34;;;;;;;21.15;17.70;;;;;;;30.70;43.70;100588.03;5067969;28;66354;-43
2022/03/12 06:04:08;;;;;;;21.55;16.88;;;;;;;30.69;43.18;100586.41;5074272;28;69419;-51
2022/03/12 06:06:46;;;;;;;18.50;16.45;;;;;;;30.60;42.51;100572.34;5073311;28;66279;-42
2022/03/12 06:09:17;;;;;;;18.10;16.20;;;;;;;30.61;41.73;100579.41;5070227;28;69975;-47
2022/03/12 06:11:52;;;;;;;17.55;15.70;;;;;;;30.63;41.14;100568.38;5072566;28;66612;-42
2022/03/12 06:14:24;;;;;;;17.90;16.05;;;;;;;30.66;40.81;100584.97;5065781;28;70228;-43
2022/03/12 06:16:54;;;;;;;20.07;15.93;;;;;;;30.54;40.82;100559.72;5070079;27;66013;-42
2022/03/12 06:19:29;;;;;;;17.20;15.50;;;;;;;30.65;41.25;100575.22;5071336;28;69188;-41
2022/03/12 06:22:05;;;;;;;17.95;16.15;;;;;;;30.50;40.60;100555.78;5068958;27;68312;-41
2022/03/12 06:24:36;;;;;;;18.92;15.63;;;;;;;30.64;39.98;100578.94;5070031;28;69715;-42
2022/03/12 06:27:07;;;;;;;17.50;15.73;;;;;;;30.63;40.31;100577.31;5074263;27;66324;-40
2022/03/12 06:29:37;;;;;;;17.20;15.13;;;;;;;30.58;39.09;100566.31;5076800;28;70396;-41
2022/03/12 06:32:11;;;;;;;19.60;16.10;;;;;;;30.53;38.93;100558.03;5072897;28;65181;-41
2022/03/12 06:34:43;;;;;;;20.02;15.13;;;;;;;30.61;39.49;100571.28;5059790;28;70607;-41
2022/03/12 06:37:14;;;;;;;20.95;15.27;;;;;;;30.57;38.77;100556.56;5071365;28;66563;-40
2022/03/12 06:39:45;;;;;;;18.67;16.23;;;;;;;30.57;39.97;100551.16;5073420;27;70300;-41
2022/03/12 06:42:17;;;;;;;17.67;15.97;;;;;;;30.54;38.36;100546.19;5068036;28;66072;-40
2022/03/12 06:44:51;;;;;;;17.00;15.27;;;;;;;30.55;39.67;100542.41;5071686;27;69078;-41
2022/03/12 06:47:28;;;;;;;16.42;14.88;;;;;;;30.47;39.14;100521.06;5074806;28;66342;-41
2022/03/12 06:50:02;;;;;;;17.00;15.32;;;;;;;30.14;38.47;100473.53;5069880;28;69304;-41
2022/03/12 06:52:35;;;;;;;16.70;15.25;;;;;;;30.45;39.40;100523.16;5069260;28;66039;-41
2022/03/12 06:55:09;;;;;;;16.92;15.25;;;;;;;30.40;38.38;100512.22;5065367;27;69286;-41
2022/03/12 06:57:40;;;;;;;16.20;14.65;;;;;;;30.47;38.24;100530.00;5077695;28;65112;-41
2022/03/12 07:00:16;;;;;;;18.40;16.48;;;;;;;30.49;37.84;100530.63;5078492;28;69316;-40
2022/03/12 07:02:47;;;;;;;17.35;15.15;;;;;;;30.46;37.77;100530.25;5073454;28;65065;-42
2022/03/12 07:05:19;;;;;;;17.02;15.45;;;;;;;30.37;37.87;100510.78;5067938;28;71513;-40
2022/03/12 07:07:56;;;;;;;15.85;14.30;;;;;;;30.45;37.21;100512.34;5056338;28;65358;-41
2022/03/12 07:10:31;;;;;;;16.25;14.77;;;;;;;30.38;36.95;100509.72;5068906;28;70301;-41
2022/03/12 07:13:01;;;;;;;15.48;14.15;;;;;;;30.33;36.91;100495.22;5076453;28;66804;-41
2022/03/12 07:15:33;;;;;;;16.20;14.73;;;;;;;30.37;37.20;100507.22;5066292;28;69731;-41
2022/03/12 07:18:04;;;;;;;16.20;14.80;;;;;;;30.35;37.25;100498.53;5073726;28;65284;-41
2022/03/12 07:20:35;;;;;;;14.87;13.77;;;;;;;30.28;37.05;100477.78;5077286;28;68664;-41
2022/03/12 07:23:05;;;;;;;17.17;15.55;;;;;;;30.38;36.89;100492.66;5074069;28;66335;-42
2022/03/12 07:25:37;;;;;;;16.52;15.00;;;;;;;30.38;36.51;100492.66;5076294;28;69735;-41
2022/03/12 07:28:10;;;;;;;16.30;14.68;;;;;;;30.31;36.67;100486.47;5054672;28;65401;-41
2022/03/12 07:30:41;;;;;;;17.42;15.68;;;;;;;30.37;36.74;100502.66;5075399;27;70129;-41
2022/03/12 07:33:12;;;;;;;17.17;14.95;;;;;;;30.33;36.86;100503.31;5072652;28;65945;-41
2022/03/12 07:35:43;;;;;;;17.67;15.93;;;;;;;30.21;36.93;100492.41;5073787;28;70186;-41
2022/03/12 07:38:14;;;;;;;21.08;17.45;;;;;;;30.30;37.29;100517.31;5067625;28;66996;-42
2022/03/12 07:40:45;;;;;;;20.42;16.92;;;;;;;30.26;37.41;100506.94;5071751;28;68816;-41
2022/03/12 07:43:17;;;;;;;20.60;18.25;;;;;;;30.19;36.92;100503.44;5068547;28;65954;-40
2022/03/12 07:45:49;;;;;;;;;;;;;;;30.03;37.60;100528.38;5069024;27;70144;-40
2022/03/12 07:48:19;;;;;;;21.63;17.50;;;;;;;30.21;37.59;100519.47;5073614;28;66195;-41
2022/03/12 07:51:09;;;;;;;20.85;18.10;;;;;;;30.26;37.42;100522.34;5070237;28;68615;-42
2022/03/12 07:53:40;;;;;;;25.67;18.30;;;;;;;30.23;38.43;100503.88;5070465;28;65920;-42
2022/03/12 07:56:12;;;;;;;23.23;18.67;;;;;;;30.55;40.57;100517.22;5067355;28;70338;-42
2022/03/12 07:58:43;;;;;;;27.58;21.48;;;;;;;30.75;43.17;100515.09;5074394;28;65806;-42
2022/03/12 08:01:14;;;;;;;34.08;24.25;;;;;;;30.91;46.00;100511.78;5066452;28;69125;-41
2022/03/12 08:03:45;;;;;;;33.77;23.73;;;;;;;31.07;46.94;100510.31;5073699;28;65676;-42
2022/03/12 08:06:16;;;;;;;33.75;24.73;;;;;;;31.19;48.45;100514.94;5077517;28;69767;-42
2022/03/12 08:08:48;;;;;;;46.05;25.65;;;;;;;31.33;48.80;100513.69;5072195;28;65644;-41
2022/03/12 08:11:25;;;;;;;35.53;25.35;;;;;;;31.37;49.28;100490.50;5069171;28;69003;-42
2022/03/12 08:14:08;;;;;;;42.72;27.40;;;;;;;31.55;51.50;100508.56;5075711;27;66081;-42
2022/03/12 08:16:45;;;;;;;38.78;27.00;;;;;;;31.67;49.99;100514.00;5069136;27;69032;-43
2022/03/12 08:19:15;;;;;;;44.60;27.55;;;;;;;31.76;50.14;100520.72;5072001;28;66164;-42
2022/03/12 08:21:52;;;;;;;38.45;25.52;;;;;;;31.75;50.96;100502.81;5063595;28;71153;-41
2022/03/12 08:24:24;;;;;;;46.72;27.48;;;;;;;31.88;51.19;100510.72;5073933;28;66460;-42
2022/03/12 08:26:55;;;;;;;42.42;23.77;;;;;;;31.92;49.63;100511.91;5081630;27;70346;-41
2022/03/12 08:29:26;;;;;;;42.38;23.63;;;;;;;31.97;47.51;100522.88;5078647;27;66670;-42
2022/03/12 08:32:08;;;;;;;39.57;22.93;;;;;;;32.01;46.73;100506.94;5059314;28;68904;-42
2022/03/12 08:34:41;;;;;;;43.00;24.05;;;;;;;31.99;46.94;100509.09;5078247;28;65991;-41
2022/03/12 08:37:12;;;;;;;36.53;24.23;;;;;;;32.08;46.73;100517.69;5062808;28;69352;-42
2022/03/12 08:39:43;;;;;;;42.17;25.33;;;;;;;32.07;47.33;100516.03;5069956;27;65860;-41
2022/03/12 08:42:14;;;;;;;44.70;25.23;;;;;;;32.05;47.53;100519.81;5072554;28;70153;-41
2022/03/12 08:44:45;;;;;;;38.33;25.80;;;;;;;31.88;53.43;100516.16;5058101;28;65983;-42
2022/03/12 08:47:17;;;;;;;43.78;27.48;;;;;;;31.61;55.15;100508.44;5073064;28;69198;-40
2022/03/12 08:49:48;;;;;;;47.60;28.77;;;;;;;31.48;56.25;100503.28;5068406;28;66624;-41
2022/03/12 08:52:21;;;;;;;48.30;28.70;;;;;;;31.54;57.55;100521.31;5076693;27;70410;-41
2022/03/12 08:54:52;;;;;;;44.80;26.42;;;;;;;31.49;58.33;100515.75;5072290;27;65256;-41
2022/03/12 08:57:23;;;;;;;49.45;28.48;;;;;;;31.43;58.73;100521.28;5077503;27;70172;-42
2022/03/12 08:59:53;;;;;;;42.97;27.58;;;;;;;31.41;59.85;100535.06;5070061;28;64046;-43
2022/03/12 09:02:24;;;;;;;41.70;27.00;;;;;;;31.38;61.21;100532.81;5072126;28;70475;-41
2022/03/12 09:04:55;;;;;;;42.30;26.43;;;;;;;31.38;61.15;100519.28;5076284;28;66471;-41
2022/03/12 09:07:30;;;;;;;51.00;27.88;;;;;;;31.37;62.06;100517.59;5074220;28;69614;-42
2022/03/12 09:10:00;;;;;;;41.90;26.92;;;;;;;31.38;63.22;100519.28;5079193;28;65705;-41
2022/03/12 09:12:31;;;;;;;51.38;28.33;;;;;;;31.41;63.11;100512.56;5070448;28;69298;-42
2022/03/12 09:15:03;;;;;;;52.90;30.67;;;;;;;31.40;64.69;100509.03;5074941;28;67377;-42
2022/03/12 09:17:34;;;;;;;48.15;30.15;;;;;;;31.41;64.59;100507.97;5057323;28;70133;-42
2022/03/12 09:20:06;;;;;;;51.20;28.20;;;;;;;31.41;64.90;100509.84;5072158;28;66364;-41
2022/03/12 09:22:37;;;;;;;51.25;27.83;;;;;;;31.34;64.38;100499.06;5064742;28;70205;-41
2022/03/12 09:25:09;;;;;;;45.00;28.08;;;;;;;31.41;64.79;100507.97;5068288;28;66013;-41
2022/03/12 09:27:44;;;;;;;43.55;27.98;;;;;;;31.36;64.33;100505.13;5074112;27;70536;-42
2022/03/12 09:30:22;;;;;;;45.95;28.85;;;;;;;31.34;65.11;100501.78;5071154;28;65488;-41
2022/03/12 09:32:53;;;;;;;44.20;27.90;;;;;;;31.30;64.92;100497.91;5063708;28;70015;-42
2022/03/12 09:35:24;;;;;;;43.92;27.40;;;;;;;31.34;64.56;100501.78;5071113;27;66418;-41
2022/03/12 09:37:55;;;;;;;43.65;28.08;;;;;;;31.32;64.49;100503.91;5076079;28;69410;-41
2022/03/12 09:40:26;;;;;;;45.40;27.27;;;;;;;31.33;64.40;100516.41;5050547;28;65217;-46
2022/03/12 09:42:57;;;;;;;44.97;27.50;;;;;;;31.22;64.89;100498.22;5064942;28;69083;-42
2022/03/12 09:45:28;;;;;;;49.30;27.92;;;;;;;31.04;65.10;100475.56;5064455;28;67086;-42
2022/03/12 09:47:59;;;;;;;39.37;27.63;;;;;;;31.24;65.84;100518.63;5064734;28;69927;-42
2022/03/12 09:50:30;;;;;;;42.97;27.27;;;;;;;31.27;65.62;100523.56;5068407;27;65192;-42
2022/03/12 09:53:02;;;;;;;42.63;27.85;;;;;;;31.01;65.89;100486.03;5060685;28;69647;-42
2022/03/12 09:55:34;;;;;;;47.23;28.47;;;;;;;31.28;65.70;100521.69;5064992;28;66179;-42
2022/03/12 09:58:06;;;;;;;42.72;29.88;;;;;;;31.27;66.07;100523.56;5066418;28;70457;-42
2022/03/12 10:00:37;;;;;;;38.92;28.35;;;;;;;31.25;66.31;100524.84;5061165;28;66350;-41
2022/03/12 10:03:09;;;;;;;44.07;29.03;;;;;;;31.27;66.16;100536.31;5068487;28;70263;-42
2022/03/12 10:05:40;;;;;;;46.27;30.83;;;;;;;31.25;66.17;100532.97;5064418;27;65438;-42
2022/03/12 10:08:11;;;;;;;44.67;33.65;;;;;;;31.13;66.70;100512.09;5063526;28;70100;-42
2022/03/12 10:10:42;;;;;;;51.38;35.10;;;;;;;31.24;66.80;100518.63;5070555;28;66309;-42
2022/03/12 10:13:12;;;;;;;46.72;35.33;;;;;;;31.23;66.82;100514.25;5068340;28;69971;-43
2022/03/12 10:15:43;;;;;;;52.10;37.47;;;;;;;31.25;67.05;100505.88;5067740;28;66314;-43
2022/03/12 10:18:15;;;;;;;52.38;36.90;;;;;;;31.24;67.13;100501.53;5065392;28;70785;-41
2022/03/12 10:20:46;;;;;;;50.60;35.92;;;;;;;31.13;67.64;100479.59;5075576;27;65311;-43
2022/03/12 10:23:17;;;;;;;45.35;35.53;;;;;;;31.15;66.80;100477.47;5069616;28;69891;-42
2022/03/12 10:25:48;;;;;;;51.45;36.40;;;;;;;31.22;67.38;100503.66;5064332;28;65456;-42
2022/03/12 10:28:19;;;;;;;52.50;36.03;;;;;;;31.15;67.57;100491.03;5066547;27;70128;-42
2022/03/12 10:30:50;;;;;;;43.60;33.60;;;;;;;31.20;67.30;100503.03;5067697;28;65116;-44
2022/03/12 10:33:23;;;;;;;46.20;34.67;;;;;;;30.93;67.43;100457.41;5053254;28;69978;-43
2022/03/12 10:35:54;;;;;;;43.00;34.28;;;;;;;31.20;67.20;100511.16;5064937;28;65535;-41
2022/03/12 10:38:25;;;;;;;47.75;32.33;;;;;;;31.19;67.64;100510.34;5066738;27;69274;-42
2022/03/12 10:40:59;;;;;;;44.83;33.07;;;;;;;31.12;67.62;100510.47;5067656;28;66648;-41
2022/03/12 10:43:43;;;;;;;50.03;33.00;;;;;;;31.20;67.39;100522.84;5050614;28;69733;-42
2022/03/12 10:46:23;;;;;;;45.13;33.55;;;;;;;31.21;67.65;100529.09;5063375;27;66586;-42
2022/03/12 10:48:59;;;;;;;44.72;31.88;;;;;;;31.10;67.60;100526.13;5074792;28;70529;-42
2022/03/12 10:51:35;;;;;;;43.13;32.25;;;;;;;30.97;67.61;100501.91;5053266;28;65466;-43
2022/03/12 10:54:12;;;;;;;48.22;33.40;;;;;;;31.22;67.91;100541.59;5073902;27;69414;-41
2022/03/12 10:56:54;;;;;;;60.28;34.60;;;;;;;31.02;68.11;100525.63;5073245;28;66199;-43
2022/03/12 10:59:27;;;;;;;53.28;37.53;;;;;;;31.13;67.36;100539.19;5078379;27;69861;-43
2022/03/12 11:02:04;;;;;;;59.45;38.03;;;;;;;31.11;67.91;100545.91;5066964;27;66599;-42
2022/03/12 11:04:35;;;;;;;57.47;41.05;;;;;;;31.03;68.43;100533.50;5089966;27;69606;-42
2022/03/12 11:07:26;;;;;;;60.30;41.67;;;;;;;30.93;68.58;100544.88;5064136;28;65519;-42
2022/03/12 11:09:58;;;;;;;62.38;41.88;;;;;;;31.03;68.56;100540.81;5066248;28;69948;-41
2022/03/12 11:12:35;;;;;;;59.73;41.00;;;;;;;30.99;68.66;100535.03;5063634;27;66176;-41
2022/03/12 11:15:15;;;;;;;61.95;40.78;;;;;;;30.88;68.21;100517.66;5069863;28;70423;-40
2022/03/12 11:17:48;;;;;;;61.80;42.92;;;;;;;30.69;68.87;100491.63;5065520;28;64164;-42
2022/03/12 11:20:33;;;;;;;61.30;39.85;;;;;;;30.65;68.73;100504.81;5068099;27;70303;-38
2022/03/12 11:23:27;;;;;;;66.15;43.22;;;;;;;30.84;68.91;100543.56;5067751;28;66569;-40
2022/03/12 11:26:06;;;;;;;69.20;41.20;;;;;;;30.92;68.37;100553.22;5065440;28;70298;-39
2022/03/12 11:28:37;;;;;;;54.50;41.70;;;;;;;30.82;68.88;100537.53;5069148;28;65748;-41
2022/03/12 11:31:10;;;;;;;70.82;43.17;;;;;;;30.86;69.20;100554.16;5054188;28;69251;-39
2022/03/12 11:33:41;;;;;;;61.58;42.20;;;;;;;30.84;69.58;100561.66;5070466;28;65575;-41
2022/03/12 11:36:13;;;;;;;71.32;43.67;;;;;;;30.89;69.62;100572.66;5069171;28;70444;-41